sensor_id;sensor_type;location;lat;lon;timestamp;temperature;humidity
20147;DHT22;10234;50.856;15.716;2023-04-05T00:04:26;-6.90;99.90
20147;DHT22;10234;50.856;15.716;2023-04-05T00:06:55;-7.20;99.90
20147;DHT22;10234;50.856;15.716;2023-04-05T00:09:22;-7.00;99.90
20147;DHT22;10234;50.856;15.716;2023-04-05T00:11:49;-6.90;99.90
20147;DHT22;10234;50.856;15.716;2023-04-05T00:14:18;-6.70;99.90
20147;DHT22;10234;50.856;15.716;2023-04-05T00:16:45;-6.80;99.90
20147;DHT22;10234;50.856;15.716;2023-04-05T00:19:12;-6.80;99.90
20147;DHT22;10234;50.856;15.716;2023-04-05T00:21:39;-7.10;99.90
20147;DHT22;10234;50.856;15.716;2023-04-05T00:24:07;-6.20;99.90
20147;DHT22;10234;50.856;15.716;2023-04-05T00:26:40;-6.70;99.90
20147;DHT22;10234;50.856;15.716;2023-04-05T00:29:08;-7.20;99.90
20147;DHT22;10234;50.856;15.716;2023-04-05T00:39:02;-7.10;99.90
20147;DHT22;10234;50.856;15.716;2023-04-05T00:43:56;-7.10;99.90
20147;DHT22;10234;50.856;15.716;2023-04-05T00:46:25;-6.80;99.90
20147;DHT22;10234;50.856;15.716;2023-04-05T00:48:54;-7.00;99.90
20147;DHT22;10234;50.856;15.716;2023-04-05T00:51:22;-6.90;99.90
20147;DHT22;10234;50.856;15.716;2023-04-05T00:53:50;-5.80;99.90
20147;DHT22;10234;50.856;15.716;2023-04-05T00:56:18;-6.90;99.90
20147;DHT22;10234;50.856;15.716;2023-04-05T00:58:47;-6.90;99.90
20147;DHT22;10234;50.856;15.716;2023-04-05T01:01:18;-6.60;99.90
20147;DHT22;10234;50.856;15.716;2023-04-05T01:03:51;-6.50;99.90
20147;DHT22;10234;50.856;15.716;2023-04-05T01:06:35;-6.70;99.90
20147;DHT22;10234;50.856;15.716;2023-04-05T01:09:07;-6.70;99.90
20147;DHT22;10234;50.856;15.716;2023-04-05T01:11:37;-6.50;99.90
20147;DHT22;10234;50.856;15.716;2023-04-05T01:14:05;-6.70;99.90
20147;DHT22;10234;50.856;15.716;2023-04-05T01:18:59;-6.60;99.90
20147;DHT22;10234;50.856;15.716;2023-04-05T01:24:50;-6.20;99.90
20147;DHT22;10234;50.856;15.716;2023-04-05T01:27:25;-6.10;99.90
20147;DHT22;10234;50.856;15.716;2023-04-05T01:30:03;-5.90;99.90
20147;DHT22;10234;50.856;15.716;2023-04-05T01:32:43;-6.10;99.90
20147;DHT22;10234;50.856;15.716;2023-04-05T01:35:17;-6.00;99.90
20147;DHT22;10234;50.856;15.716;2023-04-05T01:37:48;-6.00;99.90
20147;DHT22;10234;50.856;15.716;2023-04-05T01:40:18;-5.80;99.90
20147;DHT22;10234;50.856;15.716;2023-04-05T01:42:46;-5.80;99.90
20147;DHT22;10234;50.856;15.716;2023-04-05T01:47:41;-5.70;99.90
20147;DHT22;10234;50.856;15.716;2023-04-05T01:50:09;-5.30;99.90
20147;DHT22;10234;50.856;15.716;2023-04-05T01:52:36;-5.50;99.90
20147;DHT22;10234;50.856;15.716;2023-04-05T01:57:30;-5.30;99.90
20147;DHT22;10234;50.856;15.716;2023-04-05T02:02:25;-4.80;99.90
20147;DHT22;10234;50.856;15.716;2023-04-05T02:04:52;-4.80;99.90
20147;DHT22;10234;50.856;15.716;2023-04-05T02:07:19;-5.20;99.90
20147;DHT22;10234;50.856;15.716;2023-04-05T02:09:47;-5.00;99.90
20147;DHT22;10234;50.856;15.716;2023-04-05T02:12:14;-4.90;99.90
20147;DHT22;10234;50.856;15.716;2023-04-05T02:17:08;-4.60;99.90
20147;DHT22;10234;50.856;15.716;2023-04-05T02:19:36;-2.20;99.90
20147;DHT22;10234;50.856;15.716;2023-04-05T02:22:06;-4.70;99.90
20147;DHT22;10234;50.856;15.716;2023-04-05T02:24:33;-4.70;99.90
20147;DHT22;10234;50.856;15.716;2023-04-05T02:27:00;-4.50;99.90
20147;DHT22;10234;50.856;15.716;2023-04-05T02:29:28;-4.40;99.90
20147;DHT22;10234;50.856;15.716;2023-04-05T02:31:56;-4.10;99.90
20147;DHT22;10234;50.856;15.716;2023-04-05T02:34:23;-4.00;99.90
20147;DHT22;10234;50.856;15.716;2023-04-05T02:36:52;-4.30;99.90
20147;DHT22;10234;50.856;15.716;2023-04-05T02:41:47;-4.70;99.90
20147;DHT22;10234;50.856;15.716;2023-04-05T02:44:14;-5.10;99.90
20147;DHT22;10234;50.856;15.716;2023-04-05T02:49:08;-4.90;99.90
20147;DHT22;10234;50.856;15.716;2023-04-05T02:56:31;-5.40;99.90
20147;DHT22;10234;50.856;15.716;2023-04-05T03:01:26;-5.50;99.90
20147;DHT22;10234;50.856;15.716;2023-04-05T03:03:53;-5.60;99.90
20147;DHT22;10234;50.856;15.716;2023-04-05T03:06:21;-5.60;99.90
20147;DHT22;10234;50.856;15.716;2023-04-05T03:08:48;-5.50;99.90
20147;DHT22;10234;50.856;15.716;2023-04-05T03:11:17;-5.80;99.90
20147;DHT22;10234;50.856;15.716;2023-04-05T03:13:44;-5.80;99.90
20147;DHT22;10234;50.856;15.716;2023-04-05T03:21:05;-6.00;99.90
20147;DHT22;10234;50.856;15.716;2023-04-05T03:23:36;-6.10;99.90
20147;DHT22;10234;50.856;15.716;2023-04-05T03:26:03;-6.00;99.90
20147;DHT22;10234;50.856;15.716;2023-04-05T03:28:32;-6.00;99.90
20147;DHT22;10234;50.856;15.716;2023-04-05T03:33:26;-6.10;99.90
20147;DHT22;10234;50.856;15.716;2023-04-05T03:35:53;-6.10;99.90
20147;DHT22;10234;50.856;15.716;2023-04-05T03:38:20;-5.30;99.90
20147;DHT22;10234;50.856;15.716;2023-04-05T03:43:14;-6.40;99.90
20147;DHT22;10234;50.856;15.716;2023-04-05T03:45:43;-6.30;99.90
20147;DHT22;10234;50.856;15.716;2023-04-05T03:48:10;-6.10;99.90
20147;DHT22;10234;50.856;15.716;2023-04-05T03:50:37;-6.20;99.90
20147;DHT22;10234;50.856;15.716;2023-04-05T03:55:31;-7.20;99.90
20147;DHT22;10234;50.856;15.716;2023-04-05T03:57:58;-6.70;99.90
20147;DHT22;10234;50.856;15.716;2023-04-05T04:00:25;-6.40;99.90
20147;DHT22;10234;50.856;15.716;2023-04-05T04:02:54;-6.40;99.90
20147;DHT22;10234;50.856;15.716;2023-04-05T04:05:21;-6.40;99.90
20147;DHT22;10234;50.856;15.716;2023-04-05T04:07:49;-6.80;99.90
20147;DHT22;10234;50.856;15.716;2023-04-05T04:12:44;-6.70;99.90
20147;DHT22;10234;50.856;15.716;2023-04-05T04:15:11;-6.50;99.90
20147;DHT22;10234;50.856;15.716;2023-04-05T04:17:38;-6.40;99.90
20147;DHT22;10234;50.856;15.716;2023-04-05T04:20:08;-6.50;99.90
20147;DHT22;10234;50.856;15.716;2023-04-05T04:22:36;-6.30;99.90
20147;DHT22;10234;50.856;15.716;2023-04-05T04:25:05;-6.30;99.90
20147;DHT22;10234;50.856;15.716;2023-04-05T04:27:35;-6.50;99.90
20147;DHT22;10234;50.856;15.716;2023-04-05T04:30:06;-6.20;99.90
20147;DHT22;10234;50.856;15.716;2023-04-05T04:32:36;-6.30;99.90
20147;DHT22;10234;50.856;15.716;2023-04-05T04:35:25;-5.40;99.90
20147;DHT22;10234;50.856;15.716;2023-04-05T04:37:54;-6.00;99.90
20147;DHT22;10234;50.856;15.716;2023-04-05T04:40:23;-5.90;99.90
20147;DHT22;10234;50.856;15.716;2023-04-05T04:47:47;-6.10;99.90
20147;DHT22;10234;50.856;15.716;2023-04-05T04:50:18;-6.10;99.90
20147;DHT22;10234;50.856;15.716;2023-04-05T04:52:47;-5.80;99.90
20147;DHT22;10234;50.856;15.716;2023-04-05T04:55:14;-5.90;99.90
20147;DHT22;10234;50.856;15.716;2023-04-05T04:57:41;-6.10;99.90
20147;DHT22;10234;50.856;15.716;2023-04-05T05:00:09;-5.80;99.90
20147;DHT22;10234;50.856;15.716;2023-04-05T05:02:40;-5.50;99.90
20147;DHT22;10234;50.856;15.716;2023-04-05T05:07:37;-5.40;99.90
20147;DHT22;10234;50.856;15.716;2023-04-05T05:10:07;-5.40;99.90
20147;DHT22;10234;50.856;15.716;2023-04-05T05:12:34;-5.20;99.90
20147;DHT22;10234;50.856;15.716;2023-04-05T05:15:01;-4.80;99.90
20147;DHT22;10234;50.856;15.716;2023-04-05T05:17:28;-4.90;99.90
20147;DHT22;10234;50.856;15.716;2023-04-05T05:24:53;-4.40;99.90
20147;DHT22;10234;50.856;15.716;2023-04-05T05:27:21;-4.10;99.90
20147;DHT22;10234;50.856;15.716;2023-04-05T05:29:48;-3.80;99.90
20147;DHT22;10234;50.856;15.716;2023-04-05T05:32:15;-3.80;99.90
20147;DHT22;10234;50.856;15.716;2023-04-05T05:34:42;-3.60;99.90
20147;DHT22;10234;50.856;15.716;2023-04-05T05:37:09;-3.60;99.90
20147;DHT22;10234;50.856;15.716;2023-04-05T05:42:04;-3.20;99.90
20147;DHT22;10234;50.856;15.716;2023-04-05T05:44:33;-3.10;99.90
20147;DHT22;10234;50.856;15.716;2023-04-05T05:49:28;-2.80;99.90
20147;DHT22;10234;50.856;15.716;2023-04-05T05:51:55;-2.70;99.90
20147;DHT22;10234;50.856;15.716;2023-04-05T05:54:23;-2.20;99.90
20147;DHT22;10234;50.856;15.716;2023-04-05T05:56:51;-2.10;99.90
20147;DHT22;10234;50.856;15.716;2023-04-05T05:59:18;-2.30;99.90
20147;DHT22;10234;50.856;15.716;2023-04-05T06:01:47;-1.90;99.90
20147;DHT22;10234;50.856;15.716;2023-04-05T06:04:16;-1.90;99.90
20147;DHT22;10234;50.856;15.716;2023-04-05T06:06:43;-1.60;99.90
20147;DHT22;10234;50.856;15.716;2023-04-05T06:09:12;-1.30;99.90
20147;DHT22;10234;50.856;15.716;2023-04-05T06:14:06;-1.30;99.90
20147;DHT22;10234;50.856;15.716;2023-04-05T06:16:33;-0.90;99.90
20147;DHT22;10234;50.856;15.716;2023-04-05T06:19:02;-0.80;99.90
20147;DHT22;10234;50.856;15.716;2023-04-05T06:26:24;-0.40;99.90
20147;DHT22;10234;50.856;15.716;2023-04-05T06:28:54;1.60;99.90
20147;DHT22;10234;50.856;15.716;2023-04-05T06:31:26;-0.20;99.90
20147;DHT22;10234;50.856;15.716;2023-04-05T06:36:23;0.10;99.90
20147;DHT22;10234;50.856;15.716;2023-04-05T06:38:51;0.40;99.90
20147;DHT22;10234;50.856;15.716;2023-04-05T06:41:18;0.40;99.90
20147;DHT22;10234;50.856;15.716;2023-04-05T06:43:45;0.60;99.90
20147;DHT22;10234;50.856;15.716;2023-04-05T06:46:12;0.90;99.90
20147;DHT22;10234;50.856;15.716;2023-04-05T06:48:39;1.00;99.90
20147;DHT22;10234;50.856;15.716;2023-04-05T06:51:06;1.10;99.90
20147;DHT22;10234;50.856;15.716;2023-04-05T06:53:35;1.40;99.90
20147;DHT22;10234;50.856;15.716;2023-04-05T06:58:29;1.90;99.90
20147;DHT22;10234;50.856;15.716;2023-04-05T07:05:51;2.20;99.90
20147;DHT22;10234;50.856;15.716;2023-04-05T07:08:19;2.70;99.90
20147;DHT22;10234;50.856;15.716;2023-04-05T07:10:48;2.90;99.90
20147;DHT22;10234;50.856;15.716;2023-04-05T07:15:44;4.20;99.90
20147;DHT22;10234;50.856;15.716;2023-04-05T07:18:11;4.60;99.90
20147;DHT22;10234;50.856;15.716;2023-04-05T07:23:07;5.90;99.90
20147;DHT22;10234;50.856;15.716;2023-04-05T07:28:03;6.70;99.90
20147;DHT22;10234;50.856;15.716;2023-04-05T07:32:57;7.40;99.90
20147;DHT22;10234;50.856;15.716;2023-04-05T07:37:52;7.70;95.00
20147;DHT22;10234;50.856;15.716;2023-04-05T07:45:15;8.30;93.60
20147;DHT22;10234;50.856;15.716;2023-04-05T07:47:42;8.50;97.10
20147;DHT22;10234;50.856;15.716;2023-04-05T07:50:09;8.50;92.10
20147;DHT22;10234;50.856;15.716;2023-04-05T07:55:07;8.70;95.60
20147;DHT22;10234;50.856;15.716;2023-04-05T07:57:34;9.30;97.30
20147;DHT22;10234;50.856;15.716;2023-04-05T08:00:02;9.40;90.30
20147;DHT22;10234;50.856;15.716;2023-04-05T08:07:28;10.30;90.90
20147;DHT22;10234;50.856;15.716;2023-04-05T08:12:24;11.70;88.20
20147;DHT22;10234;50.856;15.716;2023-04-05T08:19:47;12.00;62.30
20147;DHT22;10234;50.856;15.716;2023-04-05T08:24:43;12.80;69.90
20147;DHT22;10234;50.856;15.716;2023-04-05T08:27:11;13.40;60.10
20147;DHT22;10234;50.856;15.716;2023-04-05T08:29:38;14.50;67.80
20147;DHT22;10234;50.856;15.716;2023-04-05T08:37:02;15.90;56.60
20147;DHT22;10234;50.856;15.716;2023-04-05T08:42:02;15.50;56.40
20147;DHT22;10234;50.856;15.716;2023-04-05T08:46:58;15.60;51.80
20147;DHT22;10234;50.856;15.716;2023-04-05T08:49:26;14.80;51.80
20147;DHT22;10234;50.856;15.716;2023-04-05T08:51:54;13.30;52.40
20147;DHT22;10234;50.856;15.716;2023-04-05T08:54:22;12.80;53.80
20147;DHT22;10234;50.856;15.716;2023-04-05T08:56:51;11.70;57.30
20147;DHT22;10234;50.856;15.716;2023-04-05T08:59:20;11.90;56.40
20147;DHT22;10234;50.856;15.716;2023-04-05T09:01:49;11.80;56.00
20147;DHT22;10234;50.856;15.716;2023-04-05T09:04:19;11.60;73.90
20147;DHT22;10234;50.856;15.716;2023-04-05T09:06:48;11.10;75.20
20147;DHT22;10234;50.856;15.716;2023-04-05T09:11:44;9.70;57.30
20147;DHT22;10234;50.856;15.716;2023-04-05T09:14:11;8.70;76.80
20147;DHT22;10234;50.856;15.716;2023-04-05T09:16:40;8.30;61.00
20147;DHT22;10234;50.856;15.716;2023-04-05T09:19:07;7.30;73.90
20147;DHT22;10234;50.856;15.716;2023-04-05T09:21:56;7.00;63.20
20147;DHT22;10234;50.856;15.716;2023-04-05T09:24:29;7.10;65.80
20147;DHT22;10234;50.856;15.716;2023-04-05T09:27:04;7.10;84.90
20147;DHT22;10234;50.856;15.716;2023-04-05T09:34:29;6.70;68.00
20147;DHT22;10234;50.856;15.716;2023-04-05T09:36:57;9.50;70.30
20147;DHT22;10234;50.856;15.716;2023-04-05T09:39:28;7.10;88.50
20147;DHT22;10234;50.856;15.716;2023-04-05T09:42:15;7.80;68.60
20147;DHT22;10234;50.856;15.716;2023-04-05T09:45:04;7.90;67.80
20147;DHT22;10234;50.856;15.716;2023-04-05T09:47:32;8.50;69.00
20147;DHT22;10234;50.856;15.716;2023-04-05T09:50:00;9.00;66.40
20147;DHT22;10234;50.856;15.716;2023-04-05T09:52:31;9.40;65.30
20147;DHT22;10234;50.856;15.716;2023-04-05T09:54:59;10.40;65.90
20147;DHT22;10234;50.856;15.716;2023-04-05T09:57:28;11.20;60.00
20147;DHT22;10234;50.856;15.716;2023-04-05T09:59:59;12.10;61.10
20147;DHT22;10234;50.856;15.716;2023-04-05T10:02:35;11.00;55.90
20147;DHT22;10234;50.856;15.716;2023-04-05T10:05:05;13.90;75.10
20147;DHT22;10234;50.856;15.716;2023-04-05T10:07:33;15.80;56.40
20147;DHT22;10234;50.856;15.716;2023-04-05T10:10:01;16.80;51.00
20147;DHT22;10234;50.856;15.716;2023-04-05T10:12:31;16.40;52.00
20147;DHT22;10234;50.856;15.716;2023-04-05T10:17:27;13.80;52.90
20147;DHT22;10234;50.856;15.716;2023-04-05T10:20:09;12.90;50.80
20147;DHT22;10234;50.856;15.716;2023-04-05T10:22:44;13.40;52.10
20147;DHT22;10234;50.856;15.716;2023-04-05T10:25:21;15.90;53.80
20147;DHT22;10234;50.856;15.716;2023-04-05T10:27:53;17.80;48.90
20147;DHT22;10234;50.856;15.716;2023-04-05T10:30:23;18.80;47.20
20147;DHT22;10234;50.856;15.716;2023-04-05T10:33:03;17.90;55.40
20147;DHT22;10234;50.856;15.716;2023-04-05T10:35:37;17.40;49.00
20147;DHT22;10234;50.856;15.716;2023-04-05T10:38:20;18.00;48.40
20147;DHT22;10234;50.856;15.716;2023-04-05T10:40:53;17.90;58.70
20147;DHT22;10234;50.856;15.716;2023-04-05T10:43:24;15.40;60.00
20147;DHT22;10234;50.856;15.716;2023-04-05T10:45:53;14.40;49.30
20147;DHT22;10234;50.856;15.716;2023-04-05T10:48:36;14.50;50.40
20147;DHT22;10234;50.856;15.716;2023-04-05T10:53:35;13.00;52.10
20147;DHT22;10234;50.856;15.716;2023-04-05T10:56:03;12.30;52.80
20147;DHT22;10234;50.856;15.716;2023-04-05T10:58:34;12.50;55.50
20147;DHT22;10234;50.856;15.716;2023-04-05T11:01:02;13.50;54.80
20147;DHT22;10234;50.856;15.716;2023-04-05T11:03:49;14.40;55.20
20147;DHT22;10234;50.856;15.716;2023-04-05T11:06:18;14.90;50.00
20147;DHT22;10234;50.856;15.716;2023-04-05T11:08:46;14.20;49.40
20147;DHT22;10234;50.856;15.716;2023-04-05T11:11:15;13.00;52.60
20147;DHT22;10234;50.856;15.716;2023-04-05T11:13:51;13.40;65.30
20147;DHT22;10234;50.856;15.716;2023-04-05T11:18:47;17.00;50.10
20147;DHT22;10234;50.856;15.716;2023-04-05T11:21:22;17.80;45.90
20147;DHT22;10234;50.856;15.716;2023-04-05T11:24:04;16.60;46.50
20147;DHT22;10234;50.856;15.716;2023-04-05T11:26:34;16.20;53.90
20147;DHT22;10234;50.856;15.716;2023-04-05T11:29:45;15.90;58.00
20147;DHT22;10234;50.856;15.716;2023-04-05T11:32:14;15.90;47.10
20147;DHT22;10234;50.856;15.716;2023-04-05T11:34:42;15.30;48.30
20147;DHT22;10234;50.856;15.716;2023-04-05T11:37:09;14.40;49.50
20147;DHT22;10234;50.856;15.716;2023-04-05T11:39:37;14.00;52.60
20147;DHT22;10234;50.856;15.716;2023-04-05T11:42:08;12.80;53.20
20147;DHT22;10234;50.856;15.716;2023-04-05T11:44:45;11.90;53.30
20147;DHT22;10234;50.856;15.716;2023-04-05T11:47:13;10.90;71.60
20147;DHT22;10234;50.856;15.716;2023-04-05T11:52:13;9.50;57.50
20147;DHT22;10234;50.856;15.716;2023-04-05T11:54:41;8.90;77.10
20147;DHT22;10234;50.856;15.716;2023-04-05T11:57:12;8.80;60.00
20147;DHT22;10234;50.856;15.716;2023-04-05T11:59:41;8.30;60.20
20147;DHT22;10234;50.856;15.716;2023-04-05T12:02:09;8.20;61.70
20147;DHT22;10234;50.856;15.716;2023-04-05T12:04:37;7.80;63.00
20147;DHT22;10234;50.856;15.716;2023-04-05T12:07:15;7.90;63.70
20147;DHT22;10234;50.856;15.716;2023-04-05T12:10:03;8.10;68.10
20147;DHT22;10234;50.856;15.716;2023-04-05T12:12:36;8.30;65.20
20147;DHT22;10234;50.856;15.716;2023-04-05T12:15:04;9.00;64.50
20147;DHT22;10234;50.856;15.716;2023-04-05T12:17:41;9.70;64.80
20147;DHT22;10234;50.856;15.716;2023-04-05T12:20:10;9.60;61.70
20147;DHT22;10234;50.856;15.716;2023-04-05T12:22:39;9.60;62.70
20147;DHT22;10234;50.856;15.716;2023-04-05T12:25:07;9.30;64.30
20147;DHT22;10234;50.856;15.716;2023-04-05T12:30:06;8.40;83.30
20147;DHT22;10234;50.856;15.716;2023-04-05T12:32:44;8.00;84.40
20147;DHT22;10234;50.856;15.716;2023-04-05T12:35:12;8.10;86.30
20147;DHT22;10234;50.856;15.716;2023-04-05T12:37:39;7.70;87.40
20147;DHT22;10234;50.856;15.716;2023-04-05T12:40:07;7.80;75.40
20147;DHT22;10234;50.856;15.716;2023-04-05T12:42:35;8.10;76.50
20147;DHT22;10234;50.856;15.716;2023-04-05T12:45:04;8.40;82.30
20147;DHT22;10234;50.856;15.716;2023-04-05T12:47:35;8.70;90.60
20147;DHT22;10234;50.856;15.716;2023-04-05T12:50:15;8.70;76.40
20147;DHT22;10234;50.856;15.716;2023-04-05T12:52:56;8.70;79.20
20147;DHT22;10234;50.856;15.716;2023-04-05T12:57:54;7.30;79.00
20147;DHT22;10234;50.856;15.716;2023-04-05T13:00:25;8.10;79.30
20147;DHT22;10234;50.856;15.716;2023-04-05T13:02:52;8.00;92.90
20147;DHT22;10234;50.856;15.716;2023-04-05T13:05:22;7.80;90.40
20147;DHT22;10234;50.856;15.716;2023-04-05T13:07:50;7.80;84.50
20147;DHT22;10234;50.856;15.716;2023-04-05T13:15:12;7.90;86.10
20147;DHT22;10234;50.856;15.716;2023-04-05T13:20:08;7.90;94.40
20147;DHT22;10234;50.856;15.716;2023-04-05T13:22:39;8.30;85.00
20147;DHT22;10234;50.856;15.716;2023-04-05T13:25:06;8.60;76.20
20147;DHT22;10234;50.856;15.716;2023-04-05T13:27:33;8.70;91.20
20147;DHT22;10234;50.856;15.716;2023-04-05T13:32:28;8.70;91.20
20147;DHT22;10234;50.856;15.716;2023-04-05T13:34:55;8.30;91.30
20147;DHT22;10234;50.856;15.716;2023-04-05T13:39:50;6.90;99.10
20147;DHT22;10234;50.856;15.716;2023-04-05T13:57:04;7.80;99.90
20147;DHT22;10234;50.856;15.716;2023-04-05T14:09:20;8.40;99.40
20147;DHT22;10234;50.856;15.716;2023-04-05T14:14:18;7.50;98.30
20147;DHT22;10234;50.856;15.716;2023-04-05T14:16:45;7.10;99.90
20147;DHT22;10234;50.856;15.716;2023-04-05T14:31:39;6.10;99.90
20147;DHT22;10234;50.856;15.716;2023-04-05T14:41:27;5.20;99.90
20147;DHT22;10234;50.856;15.716;2023-04-05T14:43:55;5.10;99.90
20147;DHT22;10234;50.856;15.716;2023-04-05T14:46:22;5.10;99.90
20147;DHT22;10234;50.856;15.716;2023-04-05T14:48:50;5.00;99.90
20147;DHT22;10234;50.856;15.716;2023-04-05T15:03:35;4.90;99.90
20147;DHT22;10234;50.856;15.716;2023-04-05T15:06:04;4.90;99.90
20147;DHT22;10234;50.856;15.716;2023-04-05T15:08:31;4.90;99.90
20147;DHT22;10234;50.856;15.716;2023-04-05T15:10:58;4.80;99.90
20147;DHT22;10234;50.856;15.716;2023-04-05T15:15:52;4.80;99.90
20147;DHT22;10234;50.856;15.716;2023-04-05T15:18:22;4.60;99.90
20147;DHT22;10234;50.856;15.716;2023-04-05T15:20:49;4.80;99.90
20147;DHT22;10234;50.856;15.716;2023-04-05T15:23:19;4.50;99.90
20147;DHT22;10234;50.856;15.716;2023-04-05T15:40:33;4.50;99.90
20147;DHT22;10234;50.856;15.716;2023-04-05T15:47:55;4.50;99.90
20147;DHT22;10234;50.856;15.716;2023-04-05T15:50:22;4.60;99.90
20147;DHT22;10234;50.856;15.716;2023-04-05T15:55:17;4.60;99.90
20147;DHT22;10234;50.856;15.716;2023-04-05T15:57:45;4.50;99.90
20147;DHT22;10234;50.856;15.716;2023-04-05T16:00:14;4.50;99.90
20147;DHT22;10234;50.856;15.716;2023-04-05T16:05:11;4.50;99.90
20147;DHT22;10234;50.856;15.716;2023-04-05T16:10:06;4.50;99.90
20147;DHT22;10234;50.856;15.716;2023-04-05T16:12:34;4.50;99.90
20147;DHT22;10234;50.856;15.716;2023-04-05T16:15:02;4.50;99.90
20147;DHT22;10234;50.856;15.716;2023-04-05T16:17:29;4.30;99.90
20147;DHT22;10234;50.856;15.716;2023-04-05T16:19:56;4.20;99.90
20147;DHT22;10234;50.856;15.716;2023-04-05T16:24:51;4.10;99.90
20147;DHT22;10234;50.856;15.716;2023-04-05T16:27:17;3.90;99.90
20147;DHT22;10234;50.856;15.716;2023-04-05T16:32:13;3.80;99.90
20147;DHT22;10234;50.856;15.716;2023-04-05T16:37:08;3.70;99.90
20147;DHT22;10234;50.856;15.716;2023-04-05T16:39:35;3.60;99.90
20147;DHT22;10234;50.856;15.716;2023-04-05T16:44:29;3.60;99.90
20147;DHT22;10234;50.856;15.716;2023-04-05T16:56:50;2.80;99.90
20147;DHT22;10234;50.856;15.716;2023-04-05T17:06:42;2.60;99.90
20147;DHT22;10234;50.856;15.716;2023-04-05T17:11:36;2.50;99.90
20147;DHT22;10234;50.856;15.716;2023-04-05T17:14:03;2.40;99.90
20147;DHT22;10234;50.856;15.716;2023-04-05T17:16:31;2.30;99.90
20147;DHT22;10234;50.856;15.716;2023-04-05T17:18:58;2.30;99.90
20147;DHT22;10234;50.856;15.716;2023-04-05T17:23:54;2.20;99.90
20147;DHT22;10234;50.856;15.716;2023-04-05T17:26:21;2.30;99.90
20147;DHT22;10234;50.856;15.716;2023-04-05T17:36:11;1.80;99.90
20147;DHT22;10234;50.856;15.716;2023-04-05T17:38:38;1.80;99.90
20147;DHT22;10234;50.856;15.716;2023-04-05T17:41:06;1.70;99.90
20147;DHT22;10234;50.856;15.716;2023-04-05T17:46:01;1.60;99.90
20147;DHT22;10234;50.856;15.716;2023-04-05T17:51:03;1.50;99.90
20147;DHT22;10234;50.856;15.716;2023-04-05T17:53:33;1.50;99.90
20147;DHT22;10234;50.856;15.716;2023-04-05T17:56:00;1.40;99.90
20147;DHT22;10234;50.856;15.716;2023-04-05T17:58:29;1.40;99.90
20147;DHT22;10234;50.856;15.716;2023-04-05T18:03:24;1.50;99.90
20147;DHT22;10234;50.856;15.716;2023-04-05T18:05:52;1.10;99.90
20147;DHT22;10234;50.856;15.716;2023-04-05T18:08:20;1.00;99.90
20147;DHT22;10234;50.856;15.716;2023-04-05T18:10:54;1.00;99.90
20147;DHT22;10234;50.856;15.716;2023-04-05T18:13:21;1.00;99.90
20147;DHT22;10234;50.856;15.716;2023-04-05T18:15:52;1.00;99.90
20147;DHT22;10234;50.856;15.716;2023-04-05T18:20:48;0.90;99.90
20147;DHT22;10234;50.856;15.716;2023-04-05T18:23:16;0.90;99.90
20147;DHT22;10234;50.856;15.716;2023-04-05T18:25:43;0.80;99.90
20147;DHT22;10234;50.856;15.716;2023-04-05T18:28:11;1.30;99.90
20147;DHT22;10234;50.856;15.716;2023-04-05T18:33:08;1.00;99.90
20147;DHT22;10234;50.856;15.716;2023-04-05T18:35:38;1.00;99.90
20147;DHT22;10234;50.856;15.716;2023-04-05T18:43:02;1.00;99.90
20147;DHT22;10234;50.856;15.716;2023-04-05T18:47:56;1.10;99.90
20147;DHT22;10234;50.856;15.716;2023-04-05T18:50:26;1.10;99.90
20147;DHT22;10234;50.856;15.716;2023-04-05T18:52:53;1.10;99.90
20147;DHT22;10234;50.856;15.716;2023-04-05T18:57:47;0.80;99.90
20147;DHT22;10234;50.856;15.716;2023-04-05T19:02:41;0.70;99.90
20147;DHT22;10234;50.856;15.716;2023-04-05T19:05:09;0.60;99.90
20147;DHT22;10234;50.856;15.716;2023-04-05T19:07:37;0.60;99.90
20147;DHT22;10234;50.856;15.716;2023-04-05T19:10:05;0.50;99.90
20147;DHT22;10234;50.856;15.716;2023-04-05T19:17:27;0.40;99.90
20147;DHT22;10234;50.856;15.716;2023-04-05T19:32:14;-0.10;99.90
20147;DHT22;10234;50.856;15.716;2023-04-05T19:34:41;0.20;99.90
20147;DHT22;10234;50.856;15.716;2023-04-05T19:39:35;-0.30;99.90
20147;DHT22;10234;50.856;15.716;2023-04-05T19:42:04;-0.50;99.90
20147;DHT22;10234;50.856;15.716;2023-04-05T19:44:35;-0.60;99.90
20147;DHT22;10234;50.856;15.716;2023-04-05T19:47:06;-0.70;99.90
20147;DHT22;10234;50.856;15.716;2023-04-05T19:49:37;-0.80;99.90
20147;DHT22;10234;50.856;15.716;2023-04-05T19:52:12;-0.80;99.90
20147;DHT22;10234;50.856;15.716;2023-04-05T19:54:41;-1.00;99.90
20147;DHT22;10234;50.856;15.716;2023-04-05T19:57:14;-1.10;99.90
20147;DHT22;10234;50.856;15.716;2023-04-05T20:02:18;-1.20;99.90
20147;DHT22;10234;50.856;15.716;2023-04-05T20:04:54;-1.30;99.90
20147;DHT22;10234;50.856;15.716;2023-04-05T20:12:18;-1.50;99.90
20147;DHT22;10234;50.856;15.716;2023-04-05T20:19:55;-1.40;99.90
20147;DHT22;10234;50.856;15.716;2023-04-05T20:22:25;-1.80;99.90
20147;DHT22;10234;50.856;15.716;2023-04-05T20:24:53;-1.70;99.90
20147;DHT22;10234;50.856;15.716;2023-04-05T20:27:21;-1.80;99.90
20147;DHT22;10234;50.856;15.716;2023-04-05T20:34:44;-3.10;99.90
20147;DHT22;10234;50.856;15.716;2023-04-05T20:49:32;-2.60;99.90
20147;DHT22;10234;50.856;15.716;2023-04-05T20:52:05;-2.30;99.90
20147;DHT22;10234;50.856;15.716;2023-04-05T20:57:00;-2.40;99.90
20147;DHT22;10234;50.856;15.716;2023-04-05T21:01:56;-2.50;99.90
20147;DHT22;10234;50.856;15.716;2023-04-05T21:04:23;-2.50;99.90
20147;DHT22;10234;50.856;15.716;2023-04-05T21:06:51;-2.60;99.90
20147;DHT22;10234;50.856;15.716;2023-04-05T21:09:18;-2.60;99.90
20147;DHT22;10234;50.856;15.716;2023-04-05T21:16:39;-2.80;99.90
20147;DHT22;10234;50.856;15.716;2023-04-05T21:19:07;-2.70;99.90
20147;DHT22;10234;50.856;15.716;2023-04-05T21:21:34;-2.40;99.90
20147;DHT22;10234;50.856;15.716;2023-04-05T21:31:23;-3.00;99.90
20147;DHT22;10234;50.856;15.716;2023-04-05T21:33:51;-3.00;99.90
20147;DHT22;10234;50.856;15.716;2023-04-05T21:36:19;-3.10;99.90
20147;DHT22;10234;50.856;15.716;2023-04-05T21:41:13;-3.20;99.90
20147;DHT22;10234;50.856;15.716;2023-04-05T21:43:40;-3.20;99.90
20147;DHT22;10234;50.856;15.716;2023-04-05T21:51:03;-3.40;99.90
20147;DHT22;10234;50.856;15.716;2023-04-05T21:53:31;-3.30;99.90
20147;DHT22;10234;50.856;15.716;2023-04-05T22:00:52;-3.40;99.90
20147;DHT22;10234;50.856;15.716;2023-04-05T22:03:19;-3.40;99.90
20147;DHT22;10234;50.856;15.716;2023-04-05T22:10:43;-3.70;99.90
20147;DHT22;10234;50.856;15.716;2023-04-05T22:15:37;-3.50;99.90
20147;DHT22;10234;50.856;15.716;2023-04-05T22:18:04;-3.60;99.90
20147;DHT22;10234;50.856;15.716;2023-04-05T22:20:31;-3.60;99.90
20147;DHT22;10234;50.856;15.716;2023-04-05T22:22:58;-3.80;99.90